Time;durP1;ratioP1;P1;durP2;ratioP2;P2;SDS_P1;SDS_P2;PMS_P1;PMS_P2;Temp;Humidity;BMP_temperature;BMP_pressure;BME280_temperature;BME280_humidity;BME280_pressure;Samples;Min_cycle;Max_cycle;Signal;HPM_P1;HPM_P2
2023/10/05 00:02:08;;;;;;;15.40;3.60;;;;;;;;;;4942152;29;20494;-77
2023/10/05 00:04:45;;;;;;;8.10;2.80;;;;;;;;;;4940515;29;20467;-77
2023/10/05 00:07:19;;;;;;;8.73;3.10;;;;;;;;;;4945310;29;20502;-76
2023/10/05 00:09:56;;;;;;;6.33;2.43;;;;;;;;;;4946682;29;20482;-76
2023/10/05 00:12:30;;;;;;;8.73;2.87;;;;;;;;;;4931696;29;20486;-76
2023/10/05 00:17:37;;;;;;;5.43;2.70;;;;;;;;;;5718894;23;20487;-77
2023/10/05 00:20:21;;;;;;;8.93;2.80;;;;;;;;;;4985275;28;20886;-78
2023/10/05 00:23:02;;;;;;;14.03;3.27;;;;;;;;;;4986398;28;20567;-76
2023/10/05 00:25:50;;;;;;;8.60;3.00;;;;;;;;;;4966044;28;20468;-75
2023/10/05 00:28:23;;;;;;;7.47;2.60;;;;;;;;;;4966761;28;20599;-76
2023/10/05 00:30:54;;;;;;;6.53;2.73;;;;;;;;;;4966297;28;20835;-75
2023/10/05 00:33:24;;;;;;;6.33;2.63;;;;;;;;;;4984128;28;20534;-76
2023/10/05 00:35:54;;;;;;;7.50;2.40;;;;;;;;;;4985691;28;20476;-76
2023/10/05 00:38:34;;;;;;;8.70;2.83;;;;;;;;;;4983277;28;20502;-76
2023/10/05 00:51:30;;;;;;;6.07;2.60;;;;;;;;;;4995489;23;20746;-76
2023/10/05 00:54:09;;;;;;;7.20;3.13;;;;;;;;;;4966408;29;20469;-76
2023/10/05 00:56:42;;;;;;;5.13;2.00;;;;;;;;;;4965056;29;20461;-76
2023/10/05 00:59:20;;;;;;;6.77;2.00;;;;;;;;;;4965237;29;20492;-76
2023/10/05 01:02:05;;;;;;;9.00;3.47;;;;;;;;;;4964893;29;20777;-76
2023/10/05 01:05:01;;;;;;;10.27;2.63;;;;;;;;;;4965615;29;20446;-75
2023/10/05 01:07:49;;;;;;;8.53;2.50;;;;;;;;;;4964299;29;20489;-77
2023/10/05 01:13:57;;;;;;;12.03;2.40;;;;;;;;;;4962741;29;20468;-77
2023/10/05 01:24:16;;;;;;;8.20;2.53;;;;;;;;;;5464771;23;20496;-77
2023/10/05 01:26:49;;;;;;;8.27;2.40;;;;;;;;;;4945168;29;20887;-76
2023/10/05 01:29:23;;;;;;;4.90;2.00;;;;;;;;;;4962983;29;20481;-76
2023/10/05 01:31:53;;;;;;;6.70;2.33;;;;;;;;;;4963838;29;20461;-76
2023/10/05 01:34:27;;;;;;;8.23;2.60;;;;;;;;;;4963748;29;20450;-76
2023/10/05 01:36:58;;;;;;;5.47;2.07;;;;;;;;;;4962611;29;20728;-76
2023/10/05 01:39:28;;;;;;;6.47;2.47;;;;;;;;;;4962492;29;20525;-75
2023/10/05 01:47:10;;;;;;;12.37;4.07;;;;;;;;;;5543679;23;20573;-76
2023/10/05 01:49:39;;;;;;;8.50;2.60;;;;;;;;;;4943255;29;20477;-76
2023/10/05 01:52:07;;;;;;;10.53;3.37;;;;;;;;;;4944708;29;20466;-77
2023/10/05 01:54:43;;;;;;;9.00;2.83;;;;;;;;;;4942794;29;20470;-76
2023/10/05 01:57:31;;;;;;;6.40;2.77;;;;;;;;;;4928946;29;20487;-77
2023/10/05 02:02:46;;;;;;;5.63;2.10;;;;;;;;;;4999175;28;20483;-77
2023/10/05 02:05:14;;;;;;;6.20;2.27;;;;;;;;;;5002038;28;20472;-76
2023/10/05 02:07:53;;;;;;;5.87;2.77;;;;;;;;;;5001285;28;20452;-78
2023/10/05 02:10:39;;;;;;;7.50;2.70;;;;;;;;;;5001577;28;20464;-75
2023/10/05 02:13:12;;;;;;;7.87;2.60;;;;;;;;;;5002372;28;20734;-76
2023/10/05 02:15:55;;;;;;;8.10;1.90;;;;;;;;;;5001733;28;20470;-76
2023/10/05 02:18:34;;;;;;;7.50;2.50;;;;;;;;;;5000642;28;20844;-75
2023/10/05 02:21:07;;;;;;;9.73;3.10;;;;;;;;;;4999689;28;20475;-76
2023/10/05 02:23:40;;;;;;;8.33;2.70;;;;;;;;;;5000168;28;20461;-77
2023/10/05 02:29:14;;;;;;;5.47;2.87;;;;;;;;;;4999112;28;20490;-76
2023/10/05 02:32:08;;;;;;;8.70;2.83;;;;;;;;;;5002533;28;20449;-77
2023/10/05 02:34:42;;;;;;;7.10;1.90;;;;;;;;;;4999101;28;20500;-77
2023/10/05 02:37:12;;;;;;;6.70;2.77;;;;;;;;;;5001674;28;20517;-75
2023/10/05 02:39:43;;;;;;;3.97;2.33;;;;;;;;;;5002450;28;20741;-76
2023/10/05 02:57:51;;;;;;;6.60;2.70;;;;;;;;;;5220581;23;20598;-76
2023/10/05 03:00:22;;;;;;;6.90;2.53;;;;;;;;;;4923630;29;20751;-75
2023/10/05 03:02:53;;;;;;;7.10;2.80;;;;;;;;;;4907536;29;20495;-77
2023/10/05 03:05:25;;;;;;;6.17;2.37;;;;;;;;;;4923151;29;20474;-76
2023/10/05 03:07:53;;;;;;;7.67;2.20;;;;;;;;;;4907406;29;20464;-76
2023/10/05 03:10:59;;;;;;;7.40;2.23;;;;;;;;;;4924522;29;20503;-77
2023/10/05 03:16:24;;;;;;;5.73;2.13;;;;;;;;;;4924122;29;20495;-76
2023/10/05 03:22:04;;;;;;;4.87;2.17;;;;;;;;;;4923944;29;20542;-76
2023/10/05 03:24:36;;;;;;;6.23;1.90;;;;;;;;;;4923836;29;20489;-76
2023/10/05 03:27:08;;;;;;;10.80;2.40;;;;;;;;;;4924627;29;20456;-77
2023/10/05 03:29:45;;;;;;;11.53;3.13;;;;;;;;;;4924097;29;20463;-77
2023/10/05 03:32:18;;;;;;;4.60;2.20;;;;;;;;;;5355698;23;21890;-76
2023/10/05 03:34:55;;;;;;;8.63;2.33;;;;;;;;;;4922800;29;20479;-75
2023/10/05 03:51:00;;;;;;;5.90;2.17;;;;;;;;;;5455792;23;20575;-76
2023/10/05 03:53:29;;;;;;;8.50;2.50;;;;;;;;;;4980133;28;20457;-76
2023/10/05 03:55:58;;;;;;;11.00;2.23;;;;;;;;;;4962441;28;20472;-76
2023/10/05 03:58:28;;;;;;;6.40;2.00;;;;;;;;;;4963177;28;20489;-77
2023/10/05 04:00:58;;;;;;;7.47;3.73;;;;;;;;;;4980823;28;20453;-75
2023/10/05 04:03:27;;;;;;;6.73;2.27;;;;;;;;;;4979112;28;20481;-77
2023/10/05 04:05:58;;;;;;;6.17;2.03;;;;;;;;;;4981586;28;20469;-76
2023/10/05 04:08:27;;;;;;;10.63;2.77;;;;;;;;;;5417392;23;20494;-76
2023/10/05 04:11:01;;;;;;;6.00;1.93;;;;;;;;;;4980174;28;20468;-77
2023/10/05 04:13:32;;;;;;;5.63;2.03;;;;;;;;;;4978378;28;20548;-76
2023/10/05 04:16:01;;;;;;;11.53;2.43;;;;;;;;;;4978630;28;20477;-76
2023/10/05 04:21:37;;;;;;;16.57;4.70;;;;;;;;;;4970353;28;20826;-76
2023/10/05 04:24:13;;;;;;;4.20;2.07;;;;;;;;;;4979292;28;20482;-76
2023/10/05 04:26:47;;;;;;;8.67;2.23;;;;;;;;;;4980575;28;20511;-76
2023/10/05 04:29:22;;;;;;;15.57;2.80;;;;;;;;;;4982863;28;20461;-77
2023/10/05 04:31:54;;;;;;;8.03;1.87;;;;;;;;;;4979685;28;20673;-77
2023/10/05 04:34:25;;;;;;;7.13;2.30;;;;;;;;;;4980756;28;20752;-76
2023/10/05 04:39:44;;;;;;;8.63;2.90;;;;;;;;;;4964233;28;20533;-79
2023/10/05 05:11:40;;;;;;;14.60;3.10;;;;;;;;;;5059026;23;20520;-76
2023/10/05 05:24:43;;;;;;;7.00;2.60;;;;;;;;;;5310665;23;20564;-77
2023/10/05 05:27:23;;;;;;;8.00;2.73;;;;;;;;;;4922043;29;20499;-75
2023/10/05 05:32:43;;;;;;;7.13;2.60;;;;;;;;;;4920882;29;20856;-75
2023/10/05 05:35:16;;;;;;;5.87;1.73;;;;;;;;;;4921934;29;20536;-76
2023/10/05 06:01:48;;;;;;;9.87;2.50;;;;;;;;;;4978698;28;20485;-75
2023/10/05 06:04:29;;;;;;;9.60;2.50;;;;;;;;;;4979559;28;20472;-77
2023/10/05 06:09:59;;;;;;;5.30;2.43;;;;;;;;;;5321135;23;20487;-75
2023/10/05 06:12:53;;;;;;;4.60;2.67;;;;;;;;;;4979431;28;20489;-76
2023/10/05 07:05:47;;;;;;;7.93;3.40;;;;;;;;;;5019958;23;20489;-77
2023/10/05 07:08:17;;;;;;;8.60;3.60;;;;;;;;;;4933964;29;20450;-76
2023/10/05 08:19:30;;;;;;;8.30;3.20;;;;;;;;;;5791457;23;20494;-78
2023/10/05 08:22:02;;;;;;;12.60;4.23;;;;;;;;;;4962424;29;20466;-79
2023/10/05 08:24:31;;;;;;;10.87;3.73;;;;;;;;;;4964184;29;20467;-78
2023/10/05 08:27:19;;;;;;;6.70;2.80;;;;;;;;;;4960879;29;20497;-79
2023/10/05 08:29:48;;;;;;;11.77;4.03;;;;;;;;;;4961782;29;20489;-79
2023/10/05 08:32:17;;;;;;;7.97;3.40;;;;;;;;;;4968909;29;20469;-81
2023/10/05 08:34:50;;;;;;;8.13;2.97;;;;;;;;;;4970063;29;20450;-79
2023/10/05 08:37:22;;;;;;;9.93;3.60;;;;;;;;;;4970602;29;20556;-78
2023/10/05 08:39:56;;;;;;;7.33;2.93;;;;;;;;;;4966791;29;20504;-78
2023/10/05 08:42:32;;;;;;;8.77;3.50;;;;;;;;;;4950683;29;20544;-79
2023/10/05 08:45:00;;;;;;;10.13;2.80;;;;;;;;;;4952090;29;20465;-78
2023/10/05 08:47:29;;;;;;;5.83;2.63;;;;;;;;;;4966558;28;20502;-78
2023/10/05 08:49:59;;;;;;;8.80;2.97;;;;;;;;;;4941897;29;20537;-78
2023/10/05 08:52:27;;;;;;;8.40;3.27;;;;;;;;;;4958710;28;20466;-77
2023/10/05 08:54:55;;;;;;;7.63;3.03;;;;;;;;;;4961859;29;20552;-78
2023/10/05 08:57:24;;;;;;;9.67;3.73;;;;;;;;;;4961384;29;20520;-77
2023/10/05 08:59:54;;;;;;;12.10;3.47;;;;;;;;;;4961147;29;20532;-76
2023/10/05 09:02:24;;;;;;;9.23;3.90;;;;;;;;;;4956420;29;20458;-77
2023/10/05 09:04:57;;;;;;;14.47;4.37;;;;;;;;;;4960202;29;20454;-77
2023/10/05 09:07:35;;;;;;;7.80;3.20;;;;;;;;;;4960187;29;20509;-76
2023/10/05 09:10:15;;;;;;;7.63;2.70;;;;;;;;;;4960579;29;20458;-77
2023/10/05 09:12:46;;;;;;;10.50;4.80;;;;;;;;;;4955669;29;20549;-77
2023/10/05 09:15:19;;;;;;;5.67;3.67;;;;;;;;;;4958565;29;20516;-76
2023/10/05 09:18:25;;;;;;;10.40;4.10;;;;;;;;;;4963937;29;20557;-77
2023/10/05 09:20:55;;;;;;;8.83;3.03;;;;;;;;;;4966009;28;20800;-79
2023/10/05 09:23:33;;;;;;;12.53;3.37;;;;;;;;;;4974381;28;20533;-79
2023/10/05 09:26:01;;;;;;;6.17;2.87;;;;;;;;;;4980978;28;20453;-77
2023/10/05 09:28:44;;;;;;;10.97;3.60;;;;;;;;;;4983235;28;20465;-78
2023/10/05 09:31:14;;;;;;;6.93;2.50;;;;;;;;;;4969869;28;20489;-77
2023/10/05 09:34:05;;;;;;;9.00;2.90;;;;;;;;;;4982080;28;20527;-78
2023/10/05 09:36:35;;;;;;;4.80;3.00;;;;;;;;;;4978141;28;21011;-78
2023/10/05 09:39:06;;;;;;;9.10;3.13;;;;;;;;;;4985803;28;20485;-77
2023/10/05 09:41:44;;;;;;;5.40;2.93;;;;;;;;;;4976984;28;20465;-77
2023/10/05 09:44:28;;;;;;;26.57;17.03;;;;;;;;;;4979937;28;20463;-78
2023/10/05 09:46:59;;;;;;;7.20;3.30;;;;;;;;;;4975699;28;20525;-79
2023/10/05 09:49:30;;;;;;;7.70;2.17;;;;;;;;;;4979134;28;20548;-77
2023/10/05 09:51:58;;;;;;;4.60;1.43;;;;;;;;;;4978827;28;20556;-77
2023/10/05 09:54:34;;;;;;;5.03;1.43;;;;;;;;;;4972012;28;20465;-78
2023/10/05 10:26:05;;;;;;;3.00;1.10;;;;;;;;;;4980921;28;20749;-78
2023/10/05 10:31:47;;;;;;;3.60;1.10;;;;;;;;;;4984838;28;20499;-80
2023/10/05 10:43:36;;;;;;;5.20;2.00;;;;;;;;;;1502692;26;20224;-81
2023/10/05 10:46:13;;;;;;;6.60;2.20;;;;;;;;;;5122105;28;20902;-84
2023/10/05 10:51:38;;;;;;;3.37;1.23;;;;;;;;;;5116124;28;20474;-80
2023/10/05 10:54:14;;;;;;;5.53;1.77;;;;;;;;;;5117163;28;20558;-79
2023/10/05 10:56:46;;;;;;;2.80;1.50;;;;;;;;;;5115539;28;20500;-81
2023/10/05 10:59:56;;;;;;;6.50;2.10;;;;;;;;;;5115017;28;20593;-81
2023/10/05 11:02:25;;;;;;;5.43;3.50;;;;;;;;;;5120179;28;20466;-80
2023/10/05 11:05:03;;;;;;;5.43;1.57;;;;;;;;;;5114611;28;20509;-79
2023/10/05 11:07:35;;;;;;;5.17;2.80;;;;;;;;;;5120621;28;20452;-81
2023/10/05 11:13:18;;;;;;;4.40;1.43;;;;;;;;;;5099834;28;20504;-81
2023/10/05 11:16:10;;;;;;;5.43;1.30;;;;;;;;;;5118085;28;20458;-81
2023/10/05 11:19:04;;;;;;;9.97;4.43;;;;;;;;;;5112712;28;20482;-81
2023/10/05 11:21:39;;;;;;;6.67;2.33;;;;;;;;;;5112681;28;20548;-82
2023/10/05 11:24:10;;;;;;;4.40;1.70;;;;;;;;;;5117861;28;20466;-80
2023/10/05 11:27:05;;;;;;;3.10;1.30;;;;;;;;;;5112892;28;20511;-79
2023/10/05 11:32:47;;;;;;;3.30;1.60;;;;;;;;;;5100308;28;20446;-82
2023/10/05 11:35:28;;;;;;;6.53;1.70;;;;;;;;;;5120686;28;20489;-81
2023/10/05 11:38:15;;;;;;;6.43;2.40;;;;;;;;;;5114149;28;20448;-80
2023/10/05 11:41:09;;;;;;;4.00;1.30;;;;;;;;;;5118597;28;20466;-81
2023/10/05 11:55:55;;;;;;;4.80;1.90;;;;;;;;;;5093809;28;20503;-80
2023/10/05 12:01:33;;;;;;;6.03;1.57;;;;;;;;;;5097389;28;20541;-79
2023/10/05 12:04:05;;;;;;;6.53;1.43;;;;;;;;;;5104853;28;20447;-83
2023/10/05 12:16:38;;;;;;;6.90;1.10;;;;;;;;;;5082184;28;20508;-83
2023/10/05 12:19:16;;;;;;;7.63;1.50;;;;;;;;;;5106332;28;20484;-83
2023/10/05 12:21:45;;;;;;;5.13;1.27;;;;;;;;;;5105175;28;20456;-81
2023/10/05 12:24:21;;;;;;;6.33;1.40;;;;;;;;;;5106428;28;20444;-80
2023/10/05 12:26:51;;;;;;;3.70;0.93;;;;;;;;;;5108130;28;20467;-79
2023/10/05 12:29:20;;;;;;;5.60;0.93;;;;;;;;;;5109209;28;20462;-82
2023/10/05 12:38:14;;;;;;;9.80;1.50;;;;;;;;;;5099001;28;20450;-83
2023/10/05 12:44:02;;;;;;;7.20;2.10;;;;;;;;;;5084492;28;20590;-85
2023/10/05 12:46:39;;;;;;;8.23;1.60;;;;;;;;;;5102618;28;20497;-81
2023/10/05 12:49:08;;;;;;;6.60;1.97;;;;;;;;;;5101719;28;20503;-79
2023/10/05 12:51:48;;;;;;;4.87;1.70;;;;;;;;;;5106503;28;20526;-79
2023/10/05 13:23:21;;;;;;;;;;;;;;;;;;;;;
2023/10/05 13:43:20;;;;;;;9.17;1.43;;;;;;;;;;5070753;22;20894;-79
2023/10/05 13:45:53;;;;;;;2.93;1.03;;;;;;;;;;5047133;28;20447;-78
2023/10/05 13:48:39;;;;;;;4.10;1.30;;;;;;;;;;5042701;28;20467;-79
2023/10/05 13:51:38;;;;;;;10.20;2.40;;;;;;;;;;5043815;28;20501;-78
2023/10/05 13:57:28;;;;;;;7.40;1.30;;;;;;;;;;5047802;28;20553;-80
2023/10/05 14:00:25;;;;;;;6.63;1.40;;;;;;;;;;5086279;28;20618;-78
2023/10/05 14:03:02;;;;;;;3.73;1.20;;;;;;;;;;5084335;28;20445;-80
2023/10/05 14:08:43;;;;;;;5.93;1.30;;;;;;;;;;5086518;28;20461;-79
2023/10/05 14:14:27;;;;;;;4.03;0.93;;;;;;;;;;5043193;28;20922;-80
2023/10/05 14:17:06;;;;;;;4.63;1.60;;;;;;;;;;5080849;28;20452;-80
2023/10/05 14:19:39;;;;;;;4.87;1.10;;;;;;;;;;5084270;28;20495;-78
2023/10/05 14:22:14;;;;;;;5.63;1.60;;;;;;;;;;5086140;28;20473;-79
2023/10/05 14:24:45;;;;;;;6.67;1.73;;;;;;;;;;5083621;28;20452;-80
2023/10/05 14:27:16;;;;;;;3.20;0.93;;;;;;;;;;5084106;28;20463;-79
2023/10/05 14:29:56;;;;;;;9.50;1.70;;;;;;;;;;5084164;28;20460;-79
2023/10/05 14:32:25;;;;;;;3.57;1.13;;;;;;;;;;5081847;28;20913;-80
2023/10/05 14:35:06;;;;;;;6.73;1.90;;;;;;;;;;5085146;28;20491;-79
2023/10/05 14:37:42;;;;;;;8.17;1.60;;;;;;;;;;5081337;28;20460;-80
2023/10/05 14:43:12;;;;;;;5.80;2.00;;;;;;;;;;5073929;28;20444;-80
2023/10/05 14:48:32;;;;;;;5.50;1.07;;;;;;;;;;5083581;28;20482;-79
2023/10/05 14:51:05;;;;;;;2.40;1.10;;;;;;;;;;5083793;28;20467;-82
2023/10/05 14:53:34;;;;;;;7.43;1.80;;;;;;;;;;5082722;28;20553;-80
2023/10/05 14:56:06;;;;;;;5.20;1.60;;;;;;;;;;5083542;28;20456;-81
2023/10/05 14:58:36;;;;;;;4.10;1.43;;;;;;;;;;5084263;28;20491;-79
2023/10/05 15:01:05;;;;;;;2.40;1.30;;;;;;;;;;5083361;28;20476;-80
2023/10/05 15:03:32;;;;;;;8.90;2.07;;;;;;;;;;5083823;28;20555;-78
2023/10/05 15:06:05;;;;;;;11.10;1.63;;;;;;;;;;5075845;28;20457;-81
2023/10/05 15:08:36;;;;;;;6.17;1.40;;;;;;;;;;5085599;28;20511;-77
2023/10/05 15:11:05;;;;;;;5.23;1.33;;;;;;;;;;5082746;28;20456;-78
2023/10/05 15:13:50;;;;;;;4.67;1.30;;;;;;;;;;5087582;28;20500;-79
2023/10/05 15:16:19;;;;;;;7.80;1.60;;;;;;;;;;5064384;28;20431;-79
2023/10/05 15:18:47;;;;;;;4.20;1.90;;;;;;;;;;5073263;28;20468;-79
2023/10/05 15:21:27;;;;;;;6.60;1.40;;;;;;;;;;5083170;28;20487;-82
2023/10/05 15:23:56;;;;;;;5.00;1.33;;;;;;;;;;5079087;28;20448;-79
2023/10/05 15:26:30;;;;;;;7.60;1.50;;;;;;;;;;5081089;28;20512;-82
2023/10/05 15:29:05;;;;;;;5.43;1.20;;;;;;;;;;5082723;28;20441;-81
2023/10/05 15:31:38;;;;;;;3.00;1.40;;;;;;;;;;5082546;28;20509;-82
2023/10/05 15:34:18;;;;;;;6.53;2.03;;;;;;;;;;5087456;28;20530;-81
2023/10/05 15:37:13;;;;;;;5.47;1.47;;;;;;;;;;5087228;28;20456;-78
2023/10/05 15:39:59;;;;;;;12.50;1.30;;;;;;;;;;5077119;28;20508;-79
2023/10/05 15:42:39;;;;;;;5.23;1.37;;;;;;;;;;5066131;28;20469;-76
2023/10/05 15:45:19;;;;;;;4.63;1.33;;;;;;;;;;5074377;28;20779;-78
2023/10/05 15:47:49;;;;;;;6.43;1.77;;;;;;;;;;5082568;28;20456;-77
2023/10/05 15:50:26;;;;;;;7.40;1.40;;;;;;;;;;5081375;28;20456;-77
2023/10/05 15:52:55;;;;;;;8.20;1.50;;;;;;;;;;5078296;28;21135;-76
2023/10/05 15:55:37;;;;;;;3.10;1.00;;;;;;;;;;5083543;28;20514;-77
2023/10/05 15:58:13;;;;;;;4.40;1.23;;;;;;;;;;5076851;28;20912;-77
2023/10/05 16:00:59;;;;;;;7.00;4.80;;;;;;;;;;5055548;28;20478;-77
2023/10/05 16:03:33;;;;;;;6.60;2.10;;;;;;;;;;5049477;28;20457;-78
2023/10/05 16:06:07;;;;;;;4.90;1.73;;;;;;;;;;5062978;28;20475;-77
2023/10/05 16:08:37;;;;;;;4.77;1.80;;;;;;;;;;5045280;28;20496;-77
2023/10/05 16:11:06;;;;;;;7.43;1.97;;;;;;;;;;5040095;28;20450;-76
2023/10/05 16:13:34;;;;;;;7.53;1.80;;;;;;;;;;5039791;28;20466;-76
2023/10/05 16:16:03;;;;;;;4.57;1.43;;;;;;;;;;5036087;28;20447;-76
2023/10/05 16:18:31;;;;;;;4.60;1.47;;;;;;;;;;5037481;28;20458;-76
2023/10/05 16:21:02;;;;;;;4.60;1.13;;;;;;;;;;5038617;28;20494;-77
2023/10/05 16:23:30;;;;;;;5.77;1.30;;;;;;;;;;5037381;28;20557;-77
2023/10/05 16:26:00;;;;;;;7.00;1.77;;;;;;;;;;5038145;28;20522;-77
2023/10/05 16:28:31;;;;;;;7.27;1.50;;;;;;;;;;5047428;28;20492;-77
2023/10/05 16:31:00;;;;;;;7.83;1.43;;;;;;;;;;5047584;28;20459;-79
2023/10/05 16:33:30;;;;;;;4.47;2.10;;;;;;;;;;5044577;28;20469;-77
2023/10/05 16:36:04;;;;;;;6.10;1.60;;;;;;;;;;5038977;28;20488;-78
2023/10/05 16:38:34;;;;;;;5.03;2.00;;;;;;;;;;5037882;28;20438;-77
2023/10/05 16:41:01;;;;;;;6.07;1.53;;;;;;;;;;5036780;28;20481;-77
2023/10/05 16:43:31;;;;;;;6.90;1.90;;;;;;;;;;5038620;28;20973;-78
2023/10/05 16:46:00;;;;;;;8.33;2.20;;;;;;;;;;5038702;28;20466;-78
2023/10/05 16:48:27;;;;;;;10.30;2.77;;;;;;;;;;5041280;28;20469;-77
2023/10/05 16:50:55;;;;;;;3.90;1.67;;;;;;;;;;5055963;28;20530;-78
2023/10/05 16:53:22;;;;;;;6.37;1.57;;;;;;;;;;5054642;28;20446;-77
2023/10/05 16:55:51;;;;;;;9.00;1.90;;;;;;;;;;5056939;28;20446;-78
2023/10/05 16:58:20;;;;;;;8.53;3.43;;;;;;;;;;5062509;28;20556;-76
2023/10/05 17:00:50;;;;;;;6.20;2.30;;;;;;;;;;5072183;28;20921;-76
2023/10/05 17:03:20;;;;;;;8.10;1.90;;;;;;;;;;5074134;28;20460;-77
2023/10/05 17:05:49;;;;;;;5.27;1.80;;;;;;;;;;5079664;28;20551;-79
2023/10/05 17:08:21;;;;;;;5.63;1.50;;;;;;;;;;5082341;28;20451;-79
2023/10/05 17:10:53;;;;;;;10.13;2.57;;;;;;;;;;5078338;28;20518;-79
2023/10/05 17:13:21;;;;;;;8.40;2.53;;;;;;;;;;5076358;28;20460;-78
2023/10/05 17:15:50;;;;;;;8.10;2.43;;;;;;;;;;5079413;28;20480;-78
2023/10/05 17:18:19;;;;;;;15.63;3.80;;;;;;;;;;5080620;28;20567;-78
2023/10/05 17:20:46;;;;;;;7.40;1.27;;;;;;;;;;5078965;28;20567;-78
2023/10/05 17:23:14;;;;;;;6.00;1.90;;;;;;;;;;5076714;28;20518;-78
2023/10/05 17:25:43;;;;;;;4.13;1.53;;;;;;;;;;5078267;28;20444;-77
2023/10/05 17:28:12;;;;;;;14.50;2.40;;;;;;;;;;5075205;28;20456;-78
2023/10/05 17:30:40;;;;;;;3.87;1.10;;;;;;;;;;5079291;28;20448;-77
2023/10/05 17:33:10;;;;;;;6.17;1.80;;;;;;;;;;5079823;28;20457;-77
2023/10/05 17:35:43;;;;;;;5.67;2.63;;;;;;;;;;5075078;28;20801;-78
2023/10/05 17:38:15;;;;;;;6.33;2.50;;;;;;;;;;5078123;28;20441;-79
2023/10/05 17:40:52;;;;;;;6.10;2.00;;;;;;;;;;5077125;28;20530;-78
2023/10/05 17:43:22;;;;;;;5.17;1.00;;;;;;;;;;5082834;28;20444;-78
2023/10/05 17:45:54;;;;;;;3.47;1.50;;;;;;;;;;5081528;28;20480;-78
2023/10/05 17:48:23;;;;;;;4.97;1.70;;;;;;;;;;5078898;28;20970;-79
2023/10/05 17:50:56;;;;;;;6.23;2.07;;;;;;;;;;5072667;28;20910;-78
2023/10/05 17:53:24;;;;;;;5.40;2.20;;;;;;;;;;5074790;28;20518;-77
2023/10/05 17:55:52;;;;;;;6.53;1.83;;;;;;;;;;5072029;28;20445;-77
2023/10/05 17:58:20;;;;;;;6.57;1.87;;;;;;;;;;5075291;28;20547;-79
2023/10/05 18:00:51;;;;;;;4.90;2.13;;;;;;;;;;5080644;28;20755;-79
2023/10/05 18:03:26;;;;;;;4.80;2.00;;;;;;;;;;5072658;28;20561;-76
2023/10/05 18:06:04;;;;;;;8.50;2.70;;;;;;;;;;5073326;28;20440;-76
2023/10/05 18:08:34;;;;;;;10.63;2.93;;;;;;;;;;5071667;28;21392;-75
2023/10/05 18:11:04;;;;;;;7.70;2.37;;;;;;;;;;5073897;28;20483;-77
2023/10/05 18:13:32;;;;;;;6.27;2.13;;;;;;;;;;5071616;28;20898;-77
2023/10/05 18:16:01;;;;;;;4.17;1.80;;;;;;;;;;5067299;28;20662;-78
2023/10/05 18:18:31;;;;;;;7.20;2.00;;;;;;;;;;5070110;28;20453;-78
2023/10/05 18:21:05;;;;;;;3.67;1.63;;;;;;;;;;5066095;28;20908;-76
2023/10/05 18:23:37;;;;;;;6.03;2.73;;;;;;;;;;5067178;28;20552;-76
2023/10/05 18:26:06;;;;;;;5.53;2.50;;;;;;;;;;5073994;28;20457;-75
2023/10/05 18:28:35;;;;;;;7.03;3.10;;;;;;;;;;5069654;28;20885;-76
2023/10/05 18:31:05;;;;;;;8.53;3.10;;;;;;;;;;5072774;28;20813;-78
2023/10/05 18:33:35;;;;;;;7.50;3.97;;;;;;;;;;5075719;28;20474;-78
2023/10/05 18:36:05;;;;;;;7.03;3.27;;;;;;;;;;5083548;28;20457;-79
2023/10/05 18:38:35;;;;;;;7.50;3.03;;;;;;;;;;5081316;28;20677;-79
2023/10/05 18:41:07;;;;;;;5.60;2.80;;;;;;;;;;5081983;28;20543;-78
2023/10/05 18:43:34;;;;;;;8.10;4.00;;;;;;;;;;5080819;28;20472;-79
2023/10/05 18:46:04;;;;;;;8.53;2.87;;;;;;;;;;5080006;28;20464;-81
2023/10/05 18:48:33;;;;;;;7.77;3.03;;;;;;;;;;5079210;28;20460;-78
2023/10/05 18:51:06;;;;;;;6.17;2.90;;;;;;;;;;5077893;28;20510;-78
2023/10/05 18:53:34;;;;;;;5.67;2.63;;;;;;;;;;5073593;28;20456;-78
2023/10/05 18:56:02;;;;;;;8.00;2.53;;;;;;;;;;5080296;28;20510;-78
2023/10/05 18:58:31;;;;;;;6.80;2.80;;;;;;;;;;5076135;28;20838;-79
2023/10/05 19:01:05;;;;;;;9.40;3.00;;;;;;;;;;5073522;28;20602;-78
2023/10/05 19:03:34;;;;;;;11.50;2.70;;;;;;;;;;5070236;28;20799;-79
2023/10/05 19:06:02;;;;;;;6.50;3.20;;;;;;;;;;5066513;28;20489;-78
2023/10/05 19:08:31;;;;;;;6.60;3.03;;;;;;;;;;5064219;28;20462;-78
2023/10/05 19:10:59;;;;;;;10.60;3.20;;;;;;;;;;5065120;28;20513;-78
2023/10/05 19:13:27;;;;;;;9.03;2.63;;;;;;;;;;5066415;28;20776;-79
2023/10/05 19:15:54;;;;;;;12.40;6.87;;;;;;;;;;5069100;28;20453;-80
2023/10/05 19:18:22;;;;;;;8.13;3.07;;;;;;;;;;5066256;28;20464;-79
2023/10/05 19:20:49;;;;;;;8.10;2.57;;;;;;;;;;5066231;28;20457;-79
2023/10/05 19:23:18;;;;;;;5.47;3.10;;;;;;;;;;5062346;28;20519;-77
2023/10/05 19:25:47;;;;;;;9.63;3.37;;;;;;;;;;5064054;28;20736;-80
2023/10/05 19:28:15;;;;;;;6.20;2.60;;;;;;;;;;5064449;28;20516;-80
2023/10/05 19:30:42;;;;;;;8.10;2.80;;;;;;;;;;5065298;28;20445;-81
2023/10/05 19:33:11;;;;;;;10.30;5.20;;;;;;;;;;5064173;28;20472;-79
2023/10/05 19:35:41;;;;;;;6.20;2.97;;;;;;;;;;5064100;28;20496;-78
2023/10/05 19:38:08;;;;;;;7.73;3.00;;;;;;;;;;5066101;28;20488;-80
2023/10/05 19:40:36;;;;;;;14.43;3.67;;;;;;;;;;5063508;28;20465;-76
2023/10/05 19:43:05;;;;;;;11.20;3.33;;;;;;;;;;5056490;28;20481;-75
2023/10/05 19:45:33;;;;;;;6.83;3.50;;;;;;;;;;5060504;28;20504;-81
2023/10/05 19:48:01;;;;;;;9.47;3.23;;;;;;;;;;5068160;28;20462;-79
2023/10/05 19:50:28;;;;;;;12.00;3.73;;;;;;;;;;5069560;28;20453;-79
2023/10/05 19:52:55;;;;;;;8.00;3.13;;;;;;;;;;5079253;28;20491;-78
2023/10/05 19:55:23;;;;;;;10.10;4.30;;;;;;;;;;5081413;28;20452;-79
2023/10/05 19:57:50;;;;;;;7.83;2.70;;;;;;;;;;5084836;28;20488;-79
2023/10/05 20:00:19;;;;;;;7.10;3.93;;;;;;;;;;5088440;28;20733;-80
2023/10/05 20:02:47;;;;;;;5.80;2.33;;;;;;;;;;5078760;28;20768;-80
2023/10/05 20:05:15;;;;;;;6.63;2.37;;;;;;;;;;5081410;28;20428;-78
2023/10/05 20:07:44;;;;;;;9.67;3.00;;;;;;;;;;5082351;28;20440;-80
2023/10/05 20:10:15;;;;;;;6.93;2.33;;;;;;;;;;5085510;28;20494;-80
2023/10/05 20:12:49;;;;;;;6.30;2.87;;;;;;;;;;5078758;28;20456;-79
2023/10/05 20:15:17;;;;;;;10.50;2.20;;;;;;;;;;5084178;28;20444;-80
2023/10/05 20:17:47;;;;;;;7.53;3.23;;;;;;;;;;5086205;28;20476;-80
2023/10/05 20:20:20;;;;;;;6.60;2.53;;;;;;;;;;5083779;28;20448;-78
2023/10/05 20:22:47;;;;;;;5.73;2.20;;;;;;;;;;5083369;28;20488;-78
2023/10/05 20:25:15;;;;;;;5.47;2.00;;;;;;;;;;5085076;28;20452;-77
2023/10/05 20:27:43;;;;;;;6.50;3.00;;;;;;;;;;5083644;28;20453;-78
2023/10/05 20:30:11;;;;;;;11.53;3.43;;;;;;;;;;5083604;28;20925;-78
2023/10/05 20:32:38;;;;;;;11.80;2.70;;;;;;;;;;5084544;28;20451;-79
2023/10/05 20:35:11;;;;;;;11.03;4.43;;;;;;;;;;5087678;28;20480;-79
2023/10/05 20:37:39;;;;;;;9.30;3.90;;;;;;;;;;5084459;28;20528;-78
2023/10/05 20:40:08;;;;;;;8.43;4.00;;;;;;;;;;5087375;28;20491;-79
2023/10/05 20:42:36;;;;;;;8.77;4.00;;;;;;;;;;5085344;28;20499;-78
2023/10/05 20:45:08;;;;;;;10.97;4.33;;;;;;;;;;5086547;28;20467;-78
2023/10/05 20:47:36;;;;;;;6.63;2.40;;;;;;;;;;5085690;28;20464;-78
2023/10/05 20:50:08;;;;;;;5.13;2.53;;;;;;;;;;5089068;28;20551;-79
2023/10/05 20:52:37;;;;;;;10.47;4.10;;;;;;;;;;5086078;28;20457;-78
2023/10/05 20:55:05;;;;;;;5.80;3.47;;;;;;;;;;5081139;28;20452;-79
2023/10/05 20:57:33;;;;;;;8.80;4.53;;;;;;;;;;5083737;28;20556;-80
2023/10/05 21:00:00;;;;;;;6.47;4.50;;;;;;;;;;5080906;28;20547;-77
2023/10/05 21:02:31;;;;;;;7.37;2.73;;;;;;;;;;5078128;28;20491;-77
2023/10/05 21:04:59;;;;;;;5.10;3.33;;;;;;;;;;5080676;28;20448;-78
2023/10/05 21:07:28;;;;;;;5.80;3.00;;;;;;;;;;5084430;28;20539;-78
2023/10/05 21:09:56;;;;;;;5.43;2.83;;;;;;;;;;5086359;28;20771;-77
2023/10/05 21:12:23;;;;;;;7.67;4.07;;;;;;;;;;5082744;28;20452;-78
2023/10/05 21:14:50;;;;;;;8.70;2.67;;;;;;;;;;5085465;28;20452;-78
2023/10/05 21:17:18;;;;;;;6.37;3.27;;;;;;;;;;5084488;28;20448;-78
2023/10/05 21:19:47;;;;;;;5.00;2.30;;;;;;;;;;5082963;28;20791;-78
2023/10/05 21:22:15;;;;;;;3.40;2.03;;;;;;;;;;5080607;28;20484;-77
2023/10/05 21:24:45;;;;;;;7.83;3.23;;;;;;;;;;5079892;28;20833;-78
2023/10/05 21:27:13;;;;;;;5.43;2.50;;;;;;;;;;5079983;28;20452;-78
2023/10/05 21:29:41;;;;;;;6.30;2.33;;;;;;;;;;5083665;28;20457;-78
2023/10/05 21:32:09;;;;;;;7.90;2.93;;;;;;;;;;5080572;28;20453;-78
2023/10/05 21:34:36;;;;;;;8.60;2.67;;;;;;;;;;5082716;28;20452;-78
2023/10/05 21:37:04;;;;;;;7.33;3.10;;;;;;;;;;5085715;28;20461;-79
2023/10/05 21:39:32;;;;;;;7.00;2.50;;;;;;;;;;5083075;28;20567;-79
2023/10/05 21:42:02;;;;;;;5.80;2.77;;;;;;;;;;5083896;28;20484;-78
2023/10/05 21:44:31;;;;;;;5.17;2.77;;;;;;;;;;5084372;28;20439;-78
2023/10/05 21:47:00;;;;;;;8.07;2.97;;;;;;;;;;5083756;28;20441;-79
2023/10/05 21:49:28;;;;;;;7.87;2.70;;;;;;;;;;5084500;28;21109;-78
2023/10/05 21:51:55;;;;;;;7.93;2.70;;;;;;;;;;5081054;28;20472;-77
2023/10/05 21:54:23;;;;;;;5.37;2.90;;;;;;;;;;5078673;28;20455;-78
2023/10/05 21:56:50;;;;;;;8.17;2.97;;;;;;;;;;5082598;28;20473;-78
2023/10/05 21:59:19;;;;;;;5.93;2.93;;;;;;;;;;5081217;28;20540;-79
2023/10/05 22:01:47;;;;;;;4.93;2.30;;;;;;;;;;5085679;28;20470;-78
2023/10/05 22:04:14;;;;;;;6.77;2.80;;;;;;;;;;5083401;28;20501;-78
2023/10/05 22:06:42;;;;;;;12.30;3.50;;;;;;;;;;5084039;28;20539;-78
2023/10/05 22:09:11;;;;;;;7.53;2.73;;;;;;;;;;5081972;28;20463;-77